createdAt,value
2023-02-11T00:02:46.138Z,31.05
2023-02-11T00:07:49.756Z,31.30
2023-02-11T00:12:51.515Z,27.08
2023-02-11T00:17:53.775Z,31.55
2023-02-11T00:22:55.474Z,30.67
2023-02-11T00:27:57.511Z,30.08
2023-02-11T00:32:59.327Z,36.38
2023-02-11T00:38:01.014Z,33.70
2023-02-11T00:43:02.959Z,27.55
2023-02-11T00:48:04.671Z,23.95
2023-02-11T00:53:06.464Z,27.10
2023-02-11T00:58:08.241Z,27.48
2023-02-11T01:03:10.388Z,30.13
2023-02-11T01:08:12.287Z,26.30
2023-02-11T01:13:13.894Z,35.50
2023-02-11T01:18:15.560Z,23.52
2023-02-11T01:23:17.203Z,37.10
2023-02-11T01:28:27.733Z,29.67
2023-02-11T01:33:29.952Z,26.00
2023-02-11T01:38:32.052Z,29.23
2023-02-11T01:43:42.451Z,30.73
2023-02-11T01:48:47.784Z,30.85
2023-02-11T01:54:16.241Z,26.27
2023-02-11T01:59:27.666Z,34.45
2023-02-11T02:04:33.261Z,34.20
2023-02-11T02:09:40.418Z,29.10
2023-02-11T02:14:42.266Z,35.55
2023-02-11T02:20:33.103Z,29.13
2023-02-11T02:25:52.770Z,32.13
2023-02-11T02:31:15.464Z,25.50
2023-02-11T02:36:59.299Z,26.25
2023-02-11T02:42:01.722Z,34.53
2023-02-11T02:47:03.471Z,26.05
2023-02-11T02:52:10.667Z,28.85
2023-02-11T03:02:39.622Z,24.80
2023-02-11T03:08:09.813Z,24.58
2023-02-11T03:13:13.340Z,27.00
2023-02-11T03:18:18.817Z,23.02
2023-02-11T03:23:35.330Z,24.48
2023-02-11T03:28:44.295Z,25.60
2023-02-11T03:34:10.072Z,29.60
2023-02-11T03:39:19.623Z,31.48
2023-02-11T03:44:25.295Z,31.50
2023-02-11T03:49:28.226Z,26.15
2023-02-11T03:54:30.949Z,31.95
2023-02-11T03:59:32.567Z,32.42
2023-02-11T04:04:34.166Z,33.30
2023-02-11T04:09:36.838Z,32.80
2023-02-11T04:14:38.870Z,29.10
2023-02-11T04:19:40.652Z,33.72
2023-02-11T04:24:44.012Z,29.85
2023-02-11T04:29:45.654Z,29.42
2023-02-11T04:34:47.522Z,29.05
2023-02-11T04:39:49.176Z,31.25
2023-02-11T04:44:50.849Z,32.63
2023-02-11T04:49:52.479Z,32.10
2023-02-11T04:54:54.110Z,35.22
2023-02-11T04:59:55.745Z,37.22
2023-02-11T05:04:57.342Z,33.45
2023-02-11T05:09:58.951Z,32.03
2023-02-11T05:15:00.622Z,36.50
2023-02-11T05:20:02.325Z,37.65
2023-02-11T05:25:04.206Z,40.58
2023-02-11T05:30:07.022Z,42.90
2023-02-11T05:35:09.671Z,36.58
2023-02-11T05:40:11.782Z,35.10
2023-02-11T05:45:13.483Z,47.85
2023-02-11T05:50:15.246Z,44.20
2023-02-11T05:55:16.878Z,43.75
2023-02-11T06:00:18.989Z,46.30
2023-02-11T06:05:20.711Z,49.28
2023-02-11T06:10:22.503Z,47.03
2023-02-11T06:15:24.093Z,55.30
2023-02-11T06:20:25.701Z,39.55
2023-02-11T06:25:27.415Z,40.20
2023-02-11T06:30:29.087Z,41.63
2023-02-11T06:35:30.911Z,37.55
2023-02-11T06:40:32.544Z,42.75
2023-02-11T06:45:34.325Z,44.95
2023-02-11T06:50:36.012Z,44.85
2023-02-11T06:55:37.636Z,46.28
2023-02-11T07:00:39.270Z,49.58
2023-02-11T07:05:43.849Z,44.28
2023-02-11T07:10:45.528Z,50.95
2023-02-11T07:15:47.210Z,50.13
2023-02-11T07:20:48.841Z,52.55
2023-02-11T07:25:50.865Z,55.88
2023-02-11T07:30:53.183Z,57.15
2023-02-11T07:35:54.890Z,45.25
2023-02-11T07:41:11.777Z,52.92
2023-02-11T07:46:19.716Z,58.58
2023-02-11T07:51:29.833Z,55.78
2023-02-11T07:56:32.864Z,61.95
2023-02-11T08:01:34.709Z,51.13
2023-02-11T08:06:41.310Z,52.53
2023-02-11T08:11:43.642Z,45.60
2023-02-11T08:16:45.378Z,55.85
2023-02-11T08:21:47.466Z,43.35
2023-02-11T08:26:49.670Z,42.17
2023-02-11T08:31:51.570Z,36.30
2023-02-11T08:36:53.989Z,35.22
2023-02-11T08:41:56.878Z,43.20
2023-02-11T08:46:58.571Z,41.38
2023-02-11T08:52:04.203Z,37.97
2023-02-11T08:57:05.818Z,33.22
2023-02-11T09:02:12.592Z,40.88
2023-02-11T09:07:14.389Z,41.90
2023-02-11T09:12:16.041Z,35.58
2023-02-11T09:17:17.796Z,39.35
2023-02-11T09:22:19.432Z,40.33
2023-02-11T09:27:21.081Z,42.95
2023-02-11T09:32:22.673Z,43.60
2023-02-11T09:37:24.285Z,46.83
2023-02-11T09:42:39.015Z,43.92
2023-02-11T09:47:59.753Z,43.80
2023-02-11T09:53:17.937Z,45.58
2023-02-11T09:58:26.387Z,40.83
2023-02-11T10:03:49.795Z,39.05
2023-02-11T10:09:01.715Z,42.63
2023-02-11T10:14:41.050Z,43.42
2023-02-11T10:20:16.488Z,40.60
2023-02-11T10:25:26.539Z,40.55
2023-02-11T10:30:37.249Z,42.90
2023-02-11T10:35:39.048Z,36.83
2023-02-11T10:40:40.783Z,39.15
2023-02-11T10:45:45.344Z,40.38
2023-02-11T10:50:47.039Z,38.20
2023-02-11T10:55:54.742Z,36.25
2023-02-11T11:00:59.663Z,36.03
2023-02-11T11:06:04.301Z,31.13
2023-02-11T11:11:09.030Z,31.17
2023-02-11T11:16:13.893Z,38.42
2023-02-11T11:21:22.628Z,30.83
2023-02-11T11:26:29.581Z,32.38
2023-02-11T11:31:45.275Z,31.63
2023-02-11T11:36:48.011Z,28.95
2023-02-11T11:41:52.702Z,35.85
2023-02-11T11:47:22.658Z,30.63
2023-02-11T11:52:40.590Z,33.50
2023-02-11T11:57:42.307Z,33.75
2023-02-11T12:03:22.187Z,30.25
2023-02-11T12:08:45.287Z,31.40
2023-02-11T12:14:06.830Z,32.90
2023-02-11T12:19:25.538Z,35.97
2023-02-11T12:25:26.319Z,30.58
2023-02-11T12:30:54.588Z,35.88
2023-02-11T12:36:20.686Z,31.58
2023-02-11T12:41:45.598Z,36.65
2023-02-11T12:47:03.900Z,35.20
2023-02-11T12:52:18.396Z,31.63
2023-02-11T12:57:26.549Z,37.47
2023-02-11T13:02:58.989Z,37.47
2023-02-11T13:08:21.064Z,29.27
2023-02-11T13:13:28.508Z,33.75
2023-02-11T13:18:44.089Z,34.15
2023-02-11T13:23:48.774Z,40.08
2023-02-11T13:29:13.588Z,40.60
2023-02-11T13:34:54.218Z,32.63
2023-02-11T13:40:21.285Z,34.20
2023-02-11T13:50:27.097Z,27.70
2023-02-11T13:55:30.516Z,28.85
2023-02-11T14:00:35.179Z,25.77
2023-02-11T14:05:55.572Z,27.25
2023-02-11T14:11:03.282Z,42.00
2023-02-11T14:16:13.622Z,40.60
2023-02-11T14:21:32.467Z,68.90
2023-02-11T14:26:40.144Z,36.65
2023-02-11T14:32:04.671Z,34.88
2023-02-11T14:37:50.464Z,29.88
2023-02-11T14:42:54.817Z,27.30
2023-02-11T14:48:08.353Z,27.50
2023-02-11T14:53:17.050Z,28.50
2023-02-11T14:58:23.077Z,30.98
2023-02-11T15:03:41.168Z,29.35
2023-02-11T15:09:03.579Z,31.70
2023-02-11T15:14:23.268Z,28.52
2023-02-11T15:19:33.061Z,28.98
2023-02-11T15:24:35.943Z,26.30
2023-02-11T15:29:40.925Z,25.40
2023-02-11T15:34:44.213Z,27.23
2023-02-11T15:39:46.097Z,25.27
2023-02-11T15:44:56.359Z,29.55
2023-02-11T15:49:58.974Z,25.52
2023-02-11T15:55:02.850Z,29.65
2023-02-11T16:00:07.175Z,26.60
2023-02-11T16:05:35.837Z,34.80
2023-02-11T16:10:38.858Z,43.13
2023-02-11T16:15:51.023Z,40.55
2023-02-11T16:20:53.682Z,29.15
2023-02-11T16:26:21.552Z,31.73
2023-02-11T16:31:23.468Z,30.17
2023-02-11T16:36:25.558Z,30.05
2023-02-11T16:41:27.334Z,35.08
2023-02-11T16:46:30.684Z,42.88
2023-02-11T16:51:32.297Z,42.33
2023-02-11T16:56:33.955Z,48.00
2023-02-11T17:01:38.397Z,51.47
2023-02-11T17:06:40.041Z,63.70
2023-02-11T17:11:41.692Z,51.20
2023-02-11T17:16:45.362Z,48.58
2023-02-11T17:21:49.571Z,49.28
2023-02-11T17:26:51.317Z,41.70
2023-02-11T17:31:53.801Z,46.78
2023-02-11T17:36:55.819Z,39.65
2023-02-11T17:41:57.768Z,38.33
2023-02-11T17:46:59.438Z,51.13
2023-02-11T17:52:01.199Z,44.35
2023-02-11T17:57:02.874Z,40.92
2023-02-11T18:02:05.210Z,44.05
2023-02-11T18:07:07.455Z,34.50
2023-02-11T18:12:10.883Z,38.83
2023-02-11T18:17:15.753Z,37.42
2023-02-11T18:22:17.990Z,35.85
2023-02-11T18:27:20.707Z,39.55
2023-02-11T18:32:22.422Z,31.30
2023-02-11T18:37:24.211Z,38.58
2023-02-11T18:42:25.989Z,36.00
2023-02-11T18:47:27.889Z,39.70
2023-02-11T18:52:31.264Z,42.13
2023-02-11T18:57:32.938Z,35.72
2023-02-11T19:02:34.572Z,38.10
2023-02-11T19:07:36.224Z,38.30
2023-02-11T19:12:39.243Z,37.03
2023-02-11T19:17:40.913Z,38.47
2023-02-11T19:22:42.758Z,41.65
2023-02-11T19:27:44.385Z,33.20
2023-02-11T19:32:46.110Z,30.80
2023-02-11T19:37:47.808Z,26.42
2023-02-11T19:42:49.508Z,26.90
2023-02-11T19:47:55.253Z,25.60
2023-02-11T19:52:56.922Z,25.73
2023-02-11T19:57:58.592Z,27.95
2023-02-11T20:03:00.308Z,27.75
2023-02-11T20:08:02.032Z,28.83
2023-02-11T20:13:03.975Z,27.73
2023-02-11T20:18:05.756Z,27.23
2023-02-11T20:23:07.424Z,24.77
2023-02-11T20:28:09.121Z,25.00
2023-02-11T20:33:20.541Z,24.88
2023-02-11T20:38:22.264Z,24.00
2023-02-11T20:43:23.909Z,26.58
2023-02-11T20:48:25.549Z,26.17
2023-02-11T20:53:27.204Z,25.75
2023-02-11T20:58:28.966Z,25.33
2023-02-11T21:03:30.730Z,27.08
2023-02-11T21:08:32.443Z,28.42
2023-02-11T21:13:34.325Z,28.75
2023-02-11T21:18:36.652Z,28.38
2023-02-11T21:23:39.820Z,33.58
2023-02-11T21:28:41.710Z,29.50
2023-02-11T21:33:43.474Z,28.88
2023-02-11T21:38:45.218Z,26.45
2023-02-11T21:43:46.900Z,28.60
2023-02-11T21:48:49.087Z,27.88
2023-02-11T21:53:59.612Z,26.63
2023-02-11T21:59:01.465Z,29.13
2023-02-11T22:04:04.005Z,33.63
2023-02-11T22:09:08.246Z,38.88
2023-02-11T22:14:09.984Z,44.33
2023-02-11T22:19:11.736Z,45.13
2023-02-11T22:24:13.581Z,39.05
2023-02-11T22:29:15.216Z,46.63
2023-02-11T22:34:16.910Z,47.53
2023-02-11T22:39:18.633Z,44.53
2023-02-11T22:44:21.528Z,41.63
2023-02-11T22:49:23.324Z,50.63
2023-02-11T22:54:25.590Z,43.95
2023-02-11T22:59:27.278Z,45.92
2023-02-11T23:04:29.004Z,46.55
2023-02-11T23:09:30.677Z,46.22
2023-02-11T23:14:32.408Z,51.35
2023-02-11T23:19:34.073Z,57.95
2023-02-11T23:24:37.023Z,50.30
2023-02-11T23:29:38.695Z,57.30
2023-02-11T23:34:40.439Z,65.30
2023-02-11T23:39:42.109Z,65.40
2023-02-11T23:44:43.752Z,70.65
2023-02-11T23:49:45.432Z,64.60
2023-02-11T23:54:48.232Z,68.88
2023-02-11T23:59:50.458Z,65.70
